Time;durP1;ratioP1;P1;durP2;ratioP2;P2;SDS_P1;SDS_P2;PMS_P1;PMS_P2;Temp;Humidity;BMP_temperature;BMP_pressure;BME280_temperature;BME280_humidity;BME280_pressure;Samples;Min_cycle;Max_cycle;Signal;HPM_P1;HPM_P2
2023/01/15 14:28:27;;;;;;;3.15;1.45;;;;;;;24.07;37.08;100749.00;5085879;27;20464;-45
2023/01/15 14:31:16;;;;;;;4.45;1.20;;;;;;;24.45;36.09;100760.69;5065873;28;20048;-42
2023/01/15 14:34:03;;;;;;;4.78;1.30;;;;;;;24.69;35.81;100752.09;5069501;28;20028;-47
2023/01/15 14:36:35;;;;;;;4.13;1.85;;;;;;;24.88;35.35;100752.25;5048453;28;20044;-42
2023/01/15 14:39:03;;;;;;;2.90;1.52;;;;;;;25.00;34.77;100754.06;5049545;28;20029;-42
2023/01/15 14:43:00;;;;;;;5.07;2.20;;;;;;;25.10;34.74;100739.25;5067272;28;20036;-45
2023/01/15 14:44:31;;;;;;;4.65;1.80;;;;;;;25.15;34.93;100740.16;5050006;28;20031;-43
2023/01/15 14:47:03;;;;;;;2.40;1.20;;;;;;;25.25;34.87;100746.31;5066294;28;20078;-44
2023/01/15 14:49:41;;;;;;;3.17;1.65;;;;;;;25.33;34.35;100741.97;5069689;28;20055;-44
2023/01/15 14:52:09;;;;;;;3.78;1.70;;;;;;;25.34;34.79;100736.72;5051353;28;20040;-42
2023/01/15 14:54:38;;;;;;;3.72;1.23;;;;;;;25.38;34.32;100741.97;5051775;28;20048;-42
2023/01/15 14:57:09;;;;;;;4.15;1.55;;;;;;;25.37;34.52;100745.47;5069076;28;20534;-42
2023/01/15 14:59:41;;;;;;;3.17;1.23;;;;;;;25.41;34.14;100749.88;5051826;28;20031;-42
2023/01/15 15:02:18;;;;;;;3.25;1.48;;;;;;;25.39;34.52;100726.25;5034971;28;20032;-42
2023/01/15 15:04:52;;;;;;;4.25;1.38;;;;;;;25.40;34.31;100719.25;5051122;28;20056;-42
2023/01/15 15:07:24;;;;;;;3.17;1.10;;;;;;;25.43;34.15;100704.41;5050379;28;20518;-43
2023/01/15 15:10:29;;;;;;;5.57;1.60;;;;;;;25.45;34.29;100701.78;5051507;28;20124;-42
2023/01/15 15:13:16;;;;;;;5.15;1.45;;;;;;;25.49;34.29;100695.66;5058421;28;20036;-44
2023/01/15 15:16:17;;;;;;;2.90;1.45;;;;;;;25.50;34.17;100691.28;5068736;28;20033;-41
2023/01/15 15:19:08;;;;;;;6.03;1.40;;;;;;;25.56;34.16;100686.06;5061627;28;20044;-41
2023/01/15 15:21:40;;;;;;;6.90;1.40;;;;;;;25.57;34.20;100680.78;5062416;28;20159;-42
2023/01/15 15:24:12;;;;;;;10.48;1.50;;;;;;;25.59;34.46;100676.44;5051282;28;20102;-43
2023/01/15 15:26:40;;;;;;;2.00;0.90;;;;;;;25.65;34.11;100674.69;5056879;28;20055;-42
2023/01/15 15:29:19;;;;;;;3.13;1.30;;;;;;;25.65;34.22;100661.56;5057662;28;20021;-42
2023/01/15 15:31:50;;;;;;;3.70;1.63;;;;;;;25.70;34.22;100654.53;5075594;28;20028;-41
2023/01/15 15:34:40;;;;;;;2.72;0.82;;;;;;;25.71;33.99;100687.81;5075570;28;20476;-41
2023/01/15 15:37:27;;;;;;;3.05;1.00;;;;;;;25.72;34.25;100684.31;5075050;28;20055;-43
2023/01/15 15:39:59;;;;;;;5.63;1.98;;;;;;;25.80;33.92;100664.19;5057997;28;20040;-44
2023/01/15 15:48:41;;;;;;;4.88;1.80;;;;;;;25.87;33.92;100642.28;5067173;28;20476;-43
2023/01/15 15:51:28;;;;;;;8.35;2.55;;;;;;;25.86;34.07;100632.66;5075193;28;20028;-42
2023/01/15 15:54:20;;;;;;;4.80;2.08;;;;;;;25.86;34.30;100616.88;5075183;28;20028;-44
2023/01/15 15:56:54;;;;;;;5.30;2.15;;;;;;;25.96;34.19;100623.00;5074697;28;20028;-41
2023/01/15 15:59:28;;;;;;;7.63;1.60;;;;;;;26.00;34.06;100616.00;5040557;28;20029;-41
2023/01/15 16:01:59;;;;;;;4.30;1.95;;;;;;;26.04;33.85;100612.47;5074837;28;20029;-40
2023/01/15 16:04:28;;;;;;;5.00;1.60;;;;;;;26.04;33.81;100601.97;5040561;28;20123;-43
2023/01/15 16:06:56;;;;;;;6.88;1.70;;;;;;;26.04;33.85;100596.72;5074712;28;20033;-43
2023/01/15 16:09:25;;;;;;;5.53;2.05;;;;;;;26.06;33.87;100601.06;5056920;28;20029;-42
2023/01/15 16:11:54;;;;;;;4.68;2.10;;;;;;;26.07;34.01;100588.84;5074999;28;20075;-41
2023/01/15 16:14:33;;;;;;;6.85;1.92;;;;;;;26.10;33.67;100586.19;5057337;28;20032;-41
2023/01/15 16:17:01;;;;;;;11.68;4.32;;;;;;;26.09;33.89;100579.19;5074543;28;20023;-41
2023/01/15 16:19:29;;;;;;;16.73;7.00;;;;;;;26.11;33.63;100602.84;5074411;28;20480;-42
2023/01/15 16:21:58;;;;;;;33.38;13.77;;;;;;;26.18;33.95;100599.34;5074484;28;20103;-41
2023/01/15 16:24:27;;;;;;;49.83;24.25;;;;;;;26.13;33.52;100591.50;5056570;28;20108;-43
2023/01/15 16:27:02;;;;;;;67.13;30.35;;;;;;;26.13;33.89;100561.69;5056137;28;20052;-42
2023/01/15 16:29:33;;;;;;;78.18;35.97;;;;;;;26.12;33.46;100547.69;5056542;28;20035;-41
2023/01/15 16:32:02;;;;;;;74.63;36.40;;;;;;;26.15;34.06;100536.28;5074542;28;20155;-42
2023/01/15 16:34:31;;;;;;;87.47;42.05;;;;;;;26.14;33.73;100524.91;5039754;28;20089;-41
2023/01/15 16:37:00;;;;;;;92.22;42.83;;;;;;;26.15;33.75;100513.47;5056068;28;20086;-40
2023/01/15 16:39:47;;;;;;;95.53;43.80;;;;;;;26.11;33.97;100511.75;5073458;28;20028;-42
2023/01/15 16:42:30;;;;;;;97.10;45.70;;;;;;;26.13;33.68;100496.84;5056437;28;20107;-41
2023/01/15 16:45:00;;;;;;;85.50;43.92;;;;;;;26.17;33.60;100481.94;5056179;28;20051;-42
2023/01/15 16:47:32;;;;;;;87.47;41.75;;;;;;;26.14;33.83;100479.31;5073510;28;20029;-41
2023/01/15 16:50:24;;;;;;;77.95;41.85;;;;;;;26.11;33.83;100467.06;5073902;28;20036;-41
2023/01/15 16:52:58;;;;;;;74.38;38.63;;;;;;;26.19;33.71;100462.63;5051736;28;20391;-42
2023/01/15 16:55:36;;;;;;;72.75;35.90;;;;;;;26.19;33.53;100451.25;5056487;28;20028;-42
2023/01/15 16:58:14;;;;;;;77.35;34.85;;;;;;;26.16;33.63;100446.88;5073742;28;20494;-42
2023/01/15 17:00:44;;;;;;;67.55;31.77;;;;;;;26.16;33.35;100440.75;5073047;28;20047;-41
2023/01/15 17:03:13;;;;;;;67.10;30.50;;;;;;;26.14;33.45;100425.00;5055865;28;20133;-42
2023/01/15 17:05:41;;;;;;;59.50;29.13;;;;;;;26.23;33.16;100424.06;5073643;28;20452;-41
2023/01/15 17:08:21;;;;;;;56.53;27.20;;;;;;;26.16;33.54;100412.69;5073430;28;20020;-42
2023/01/15 17:11:00;;;;;;;57.17;25.73;;;;;;;26.15;33.34;100405.69;5073425;28;20588;-41
2023/01/15 17:13:39;;;;;;;57.10;25.73;;;;;;;26.17;33.25;100403.06;5073583;28;20117;-41
2023/01/15 17:16:26;;;;;;;53.83;22.20;;;;;;;26.12;33.65;100395.22;5073927;28;20032;-42
2023/01/15 17:18:53;;;;;;;45.33;21.20;;;;;;;26.16;33.09;100381.16;5068942;28;20021;-40
2023/01/15 17:21:27;;;;;;;42.08;19.25;;;;;;;26.12;33.06;100363.66;5053187;28;20104;-44
2023/01/15 17:23:58;;;;;;;40.77;17.60;;;;;;;26.06;32.70;100346.13;5053055;28;20025;-42
2023/01/15 17:26:29;;;;;;;33.90;16.17;;;;;;;26.05;32.66;100338.25;5035994;28;20514;-41
2023/01/15 17:28:57;;;;;;;39.97;16.50;;;;;;;26.01;32.78;100329.53;5052558;28;20033;-41
2023/01/15 17:31:29;;;;;;;34.22;16.00;;;;;;;25.99;33.17;100348.78;5053462;28;20052;-40
2023/01/15 17:33:58;;;;;;;30.25;13.52;;;;;;;26.03;33.02;100332.13;5053256;28;20029;-41
2023/01/15 17:36:26;;;;;;;29.80;13.25;;;;;;;26.08;32.99;100320.69;5035343;28;20112;-41
2023/01/15 17:38:55;;;;;;;31.17;13.05;;;;;;;26.05;32.84;100306.72;5035294;28;20064;-41
2023/01/15 17:41:24;;;;;;;28.75;13.02;;;;;;;26.02;32.91;100294.47;5053084;28;20087;-42
2023/01/15 17:43:52;;;;;;;25.27;11.50;;;;;;;26.00;32.77;100287.47;5017843;28;20078;-41
2023/01/15 17:46:20;;;;;;;24.60;10.75;;;;;;;26.04;32.90;100281.31;5052493;28;20029;-40
2023/01/15 17:48:48;;;;;;;20.48;9.88;;;;;;;25.99;33.15;100273.47;5052705;28;20025;-41
2023/01/15 17:51:17;;;;;;;19.67;9.65;;;;;;;25.98;32.46;100270.84;5052858;28;20056;-41
2023/01/15 17:53:44;;;;;;;19.80;9.02;;;;;;;25.94;32.94;100243.69;5052610;28;20028;-40
2023/01/15 18:07:27;;;;;;;17.30;7.05;;;;;;;25.94;32.55;100194.66;5041282;28;20098;-43
2023/01/15 18:09:56;;;;;;;17.55;6.57;;;;;;;25.87;32.69;100163.19;5051938;28;20032;-41
2023/01/15 18:12:23;;;;;;;15.02;6.15;;;;;;;25.93;32.52;100168.38;5035085;28;20495;-41
2023/01/15 18:14:52;;;;;;;14.30;5.97;;;;;;;25.89;32.55;100148.28;5034578;28;20396;-41
2023/01/15 18:17:20;;;;;;;13.52;5.60;;;;;;;25.86;32.66;100146.53;5052511;28;20524;-43
2023/01/15 18:19:47;;;;;;;11.55;5.53;;;;;;;25.86;32.62;100130.78;5052363;28;20484;-41
2023/01/15 18:22:14;;;;;;;11.63;4.88;;;;;;;25.88;32.55;100125.53;5035079;28;20056;-42
2023/01/15 18:24:42;;;;;;;15.55;5.72;;;;;;;25.99;31.80;100102.66;5052119;28;20468;-41
2023/01/15 18:27:09;;;;;;;14.65;5.47;;;;;;;25.96;32.34;100102.66;5034184;28;20048;-41
2023/01/15 18:29:39;;;;;;;12.50;4.68;;;;;;;25.97;32.15;100096.53;5035229;28;20194;-42
2023/01/15 18:32:10;;;;;;;12.90;5.03;;;;;;;25.92;32.19;100091.31;5052590;28;20025;-43
2023/01/15 18:34:38;;;;;;;11.30;4.25;;;;;;;25.83;32.36;100077.38;5051875;28;20423;-41
2023/01/15 18:37:05;;;;;;;11.68;3.95;;;;;;;25.76;32.62;100066.06;5052399;28;20051;-42
2023/01/15 18:39:35;;;;;;;11.88;4.13;;;;;;;25.77;32.63;100057.31;5052329;28;20029;-41
2023/01/15 18:47:19;;;;;;;7.95;3.20;;;;;;;25.82;32.29;100017.84;5029771;28;20041;-48
2023/01/15 18:49:49;;;;;;;14.00;3.90;;;;;;;25.75;32.39;100007.38;5034920;28;20486;-42
2023/01/15 18:53:01;;;;;;;7.07;2.90;;;;;;;25.80;32.15;99994.22;5052187;28;20388;-43
2023/01/15 18:55:04;;;;;;;8.15;2.88;;;;;;;25.74;32.16;99968.00;5030341;28;20033;-40
2023/01/15 18:57:34;;;;;;;8.40;3.22;;;;;;;25.73;32.63;99945.25;5052037;28;20472;-40
2023/01/15 19:00:01;;;;;;;10.25;3.90;;;;;;;25.73;32.33;99942.63;5052197;28;20040;-45
2023/01/15 19:02:29;;;;;;;10.57;3.53;;;;;;;25.63;32.64;99915.59;5052397;28;20438;-45
2023/01/15 19:04:58;;;;;;;10.10;3.72;;;;;;;25.60;32.59;99895.50;5055484;28;20032;-41
2023/01/15 19:07:26;;;;;;;9.35;4.05;;;;;;;25.62;32.59;99882.31;5038284;28;20025;-41
2023/01/15 19:09:54;;;;;;;9.98;3.55;;;;;;;25.54;32.95;99858.78;5055945;28;20060;-42
2023/01/15 19:12:23;;;;;;;10.57;4.18;;;;;;;25.51;32.55;99837.78;5055695;28;20472;-41
2023/01/15 19:20:24;;;;;;;11.45;3.15;;;;;;;25.58;32.84;99793.94;5047830;28;20389;-40
2023/01/15 19:23:03;;;;;;;7.38;2.90;;;;;;;25.58;32.89;99786.06;5055709;28;20029;-41
2023/01/15 19:25:42;;;;;;;10.20;3.83;;;;;;;25.66;32.86;99785.97;5055318;28;20041;-41
2023/01/15 19:28:16;;;;;;;11.25;3.45;;;;;;;25.60;32.93;99765.91;5055072;28;20067;-42
2023/01/15 19:31:35;;;;;;;9.13;2.97;;;;;;;25.65;33.20;99742.25;5037248;28;20028;-41
2023/01/15 19:33:33;;;;;;;10.85;2.88;;;;;;;25.65;32.92;99748.34;5055093;28;20039;-41
2023/01/15 19:36:02;;;;;;;9.25;3.03;;;;;;;25.57;33.13;99709.06;5055236;28;20024;-41
2023/01/15 19:38:29;;;;;;;7.47;2.80;;;;;;;25.62;33.10;99728.25;5055193;28;20036;-41
2023/01/15 19:50:17;;;;;;;11.20;3.00;;;;;;;25.61;33.14;99704.63;5055505;28;20468;-42
2023/01/15 19:52:47;;;;;;;10.30;4.00;;;;;;;25.48;32.92;99631.28;5037164;28;20108;-43
2023/01/15 19:54:54;;;;;;;7.30;2.83;;;;;;;25.45;33.13;99612.09;5034276;28;20037;-41
2023/01/15 19:57:23;;;;;;;10.55;4.03;;;;;;;25.46;33.04;99592.84;5037159;28;20025;-41
2023/01/15 19:59:51;;;;;;;8.45;2.80;;;;;;;25.44;33.04;99586.72;5037547;28;20044;-40
2023/01/15 20:02:19;;;;;;;7.80;2.72;;;;;;;25.47;33.19;99577.03;5054939;28;20029;-43
2023/01/15 20:04:47;;;;;;;8.73;2.85;;;;;;;25.44;32.80;99539.47;5037336;28;20051;-41
2023/01/15 20:07:16;;;;;;;10.85;3.17;;;;;;;25.38;33.02;99550.03;5054133;28;20028;-41
2023/01/15 20:09:45;;;;;;;9.95;3.15;;;;;;;25.38;33.00;99519.41;5053673;28;20037;-41
2023/01/15 20:15:00;;;;;;;9.65;2.90;;;;;;;25.30;32.99;99500.28;5047972;28;20037;-41
2023/01/15 20:17:30;;;;;;;11.70;3.10;;;;;;;25.29;32.88;99482.78;5053561;28;20037;-42
2023/01/15 20:19:58;;;;;;;8.75;3.00;;;;;;;25.36;32.87;99473.94;5054773;28;20025;-42
2023/01/15 20:22:29;;;;;;;11.10;2.95;;;;;;;25.33;33.12;99459.09;5054544;28;20025;-41
2023/01/15 20:24:58;;;;;;;7.93;2.95;;;;;;;25.27;32.96;99432.06;5037081;28;20105;-41
